createdAt,value
2019-01-08T00:01:36.541Z,99477.19
2019-01-08T00:04:06.905Z,99474.91
2019-01-08T00:06:40.032Z,99477.13
2019-01-08T00:09:11.884Z,99470.19
2019-01-08T00:11:41.996Z,99461.64
2019-01-08T00:14:11.245Z,99458.61
2019-01-08T00:16:41.856Z,99457.06
2019-01-08T00:19:11.390Z,99463.81
2019-01-08T00:21:41.634Z,99454.61
2019-01-08T00:24:11.171Z,99445.16
2019-01-08T00:26:40.968Z,99440.83
2019-01-08T00:29:10.509Z,99434.52
2019-01-08T00:31:39.738Z,99429.70
2019-01-08T00:34:11.198Z,99418.43
2019-01-08T00:36:41.560Z,99391.23
2019-01-08T00:39:12.176Z,99395.47
2019-01-08T00:41:41.657Z,99391.23
2019-01-08T00:44:11.440Z,99390.55
2019-01-08T00:46:41.554Z,99383.65
2019-01-08T00:49:12.330Z,99400.27
2019-01-08T00:51:42.901Z,99374.38
2019-01-08T00:54:15.041Z,99371.43
2019-01-08T00:56:46.484Z,99360.92
2019-01-08T00:59:16.099Z,99354.75
2019-01-08T01:01:49.785Z,99351.27
2019-01-08T01:04:19.337Z,99349.19
2019-01-08T01:06:48.933Z,99345.66
2019-01-08T01:09:19.858Z,99341.67
2019-01-08T01:11:49.843Z,99336.68
2019-01-08T01:14:19.116Z,99329.72
2019-01-08T01:16:49.465Z,99316.73
2019-01-08T01:19:21.918Z,99318.97
2019-01-08T01:21:52.180Z,99317.70
2019-01-08T01:24:25.757Z,99311.80
2019-01-08T01:26:58.974Z,99308.92
2019-01-08T01:29:28.528Z,99337.09
2019-01-08T01:31:59.260Z,99290.92
2019-01-08T01:34:28.867Z,99287.48
2019-01-08T01:36:58.091Z,99274.16
2019-01-08T01:39:27.706Z,99272.31
2019-01-08T01:41:57.776Z,99269.15
2019-01-08T01:44:29.090Z,99260.34
2019-01-08T01:46:59.608Z,99245.03
2019-01-08T01:49:29.238Z,99251.20
2019-01-08T01:52:06.892Z,99250.67
2019-01-08T01:54:36.725Z,99242.25
2019-01-08T01:57:05.945Z,99240.55
2019-01-08T01:59:35.465Z,99246.52
2019-01-08T02:02:05.051Z,99237.53
2019-01-08T02:04:39.528Z,99223.39
2019-01-08T02:07:11.126Z,99229.56
2019-01-08T02:09:40.385Z,99202.94
2019-01-08T02:12:11.109Z,99218.89
2019-01-08T02:14:40.953Z,99225.23
2019-01-08T02:17:10.987Z,99234.91
2019-01-08T02:19:41.308Z,99236.00
2019-01-08T02:22:13.568Z,99233.19
2019-01-08T02:24:48.259Z,99223.52
2019-01-08T02:27:17.848Z,99223.00
2019-01-08T02:29:49.352Z,99220.08
2019-01-08T02:32:23.446Z,99215.81
2019-01-08T02:34:53.527Z,99211.56
2019-01-08T02:37:24.934Z,99203.51
2019-01-08T02:39:59.439Z,99208.54
2019-01-08T02:42:30.505Z,99197.56
2019-01-08T02:45:01.155Z,99204.91
2019-01-08T02:47:31.168Z,99200.70
2019-01-08T02:50:00.772Z,99198.16
2019-01-08T02:52:30.045Z,99192.75
2019-01-08T02:55:00.759Z,99184.73
2019-01-08T02:57:30.348Z,99177.13
2019-01-08T03:00:02.011Z,99169.16
2019-01-08T03:02:31.494Z,99165.06
2019-01-08T03:05:00.853Z,99151.92
2019-01-08T03:07:30.376Z,99164.07
2019-01-08T03:10:01.979Z,99159.73
2019-01-08T03:12:33.454Z,99156.95
2019-01-08T03:15:03.969Z,99149.33
2019-01-08T03:17:33.227Z,99160.27
2019-01-08T03:20:02.738Z,99155.48
2019-01-08T03:22:32.245Z,99145.59
2019-01-08T03:25:04.579Z,99137.55
2019-01-08T03:27:39.123Z,99136.73
2019-01-08T03:30:09.749Z,99126.09
2019-01-08T03:32:39.787Z,99132.98
2019-01-08T03:35:09.337Z,99132.98
2019-01-08T03:37:39.549Z,99141.34
2019-01-08T03:40:10.558Z,99138.89
2019-01-08T03:42:42.718Z,99122.20
2019-01-08T03:45:12.403Z,99134.99
2019-01-08T03:47:42.351Z,99124.89
2019-01-08T03:50:12.717Z,99112.52
2019-01-08T03:52:41.977Z,99107.45
2019-01-08T03:55:12.279Z,99102.23
2019-01-08T03:57:41.852Z,99102.30
2019-01-08T04:00:11.936Z,99088.61
2019-01-08T04:02:44.331Z,99091.32
2019-01-08T04:05:13.557Z,99095.68
2019-01-08T04:07:44.693Z,99078.03
2019-01-08T04:10:15.710Z,99078.76
2019-01-08T04:12:47.276Z,99072.26
2019-01-08T04:15:18.493Z,99063.44
2019-01-08T04:17:47.768Z,99056.94
2019-01-08T04:20:19.257Z,99050.73
2019-01-08T04:22:48.517Z,99039.95
2019-01-08T04:25:19.301Z,99051.56
2019-01-08T04:27:49.619Z,99028.23
2019-01-08T04:30:22.779Z,99027.98
2019-01-08T04:32:52.298Z,99034.28
2019-01-08T04:35:22.238Z,99024.78
2019-01-08T04:37:51.862Z,99027.48
2019-01-08T04:40:22.216Z,99025.70
2019-01-08T04:42:53.620Z,99017.16
2019-01-08T04:45:25.394Z,99014.80
2019-01-08T04:47:59.731Z,99003.83
2019-01-08T04:50:30.048Z,99001.66
2019-01-08T04:53:02.784Z,99001.14
2019-01-08T04:55:35.447Z,98998.86
2019-01-08T04:58:06.794Z,98999.44
2019-01-08T05:00:37.646Z,99002.34
2019-01-08T05:03:09.393Z,98997.66
2019-01-08T05:05:38.607Z,99007.55
2019-01-08T05:08:08.126Z,99002.19
2019-01-08T05:10:37.635Z,98996.80
2019-01-08T05:13:07.033Z,99000.38
2019-01-08T05:15:36.554Z,98988.23
2019-01-08T05:18:06.535Z,98989.23
2019-01-08T05:20:43.528Z,98978.64
2019-01-08T05:23:13.266Z,98976.09
2019-01-08T05:25:48.789Z,98979.16
2019-01-08T05:28:18.139Z,98978.64
2019-01-08T05:30:50.439Z,98973.80
2019-01-08T05:33:20.806Z,98967.66
2019-01-08T05:35:52.784Z,98962.86
2019-01-08T05:38:24.228Z,98955.61
2019-01-08T05:40:55.449Z,98961.41
2019-01-08T05:43:25.999Z,98955.98
2019-01-08T05:45:55.227Z,98949.41
2019-01-08T05:48:25.498Z,98937.77
2019-01-08T05:50:55.363Z,98940.94
2019-01-08T05:53:24.614Z,98927.70
2019-01-08T05:55:55.537Z,98923.51
2019-01-08T05:58:27.103Z,98932.79
2019-01-08T06:00:57.002Z,98920.20
2019-01-08T06:03:26.252Z,98920.05
2019-01-08T06:05:56.697Z,98919.10
2019-01-08T06:08:26.090Z,98914.40
2019-01-08T06:10:59.185Z,98916.73
2019-01-08T06:13:33.269Z,98913.54
2019-01-08T06:16:05.886Z,98904.88
2019-01-08T06:18:37.716Z,98897.38
2019-01-08T06:21:08.275Z,98881.06
2019-01-08T06:23:38.179Z,98869.77
2019-01-08T06:26:12.163Z,98879.65
2019-01-08T06:28:41.981Z,98867.48
2019-01-08T06:31:11.201Z,98870.28
2019-01-08T06:33:40.510Z,98881.86
2019-01-08T06:36:14.459Z,98872.81
2019-01-08T06:38:50.617Z,98878.23
2019-01-08T06:41:21.051Z,98874.00
2019-01-08T06:43:52.439Z,98862.60
2019-01-08T06:46:24.304Z,98868.27
2019-01-08T06:48:55.191Z,98862.39
2019-01-08T06:51:24.922Z,98868.27
2019-01-08T06:53:54.159Z,98861.20
2019-01-08T06:56:25.584Z,98861.46
2019-01-08T06:58:54.932Z,98850.41
2019-01-08T07:01:24.190Z,98858.03
2019-01-08T07:03:59.223Z,98848.91
2019-01-08T07:06:35.816Z,98852.44
2019-01-08T07:09:08.547Z,98824.33
2019-01-08T07:11:45.386Z,98834.41
2019-01-08T07:14:31.227Z,98836.96
2019-01-08T07:17:29.004Z,98838.58
2019-01-08T07:20:30.372Z,98824.28
2019-01-08T07:23:11.183Z,98820.17
2019-01-08T07:25:52.607Z,98839.50
2019-01-08T07:28:29.446Z,98833.19
2019-01-08T07:31:11.964Z,98824.83
2019-01-08T07:33:41.318Z,98837.70
2019-01-08T07:36:10.549Z,98830.50
2019-01-08T07:38:39.765Z,98849.14
2019-01-08T07:41:10.057Z,98836.98
2019-01-08T07:43:39.277Z,98853.59
2019-01-08T07:46:09.612Z,98848.14
2019-01-08T07:48:40.170Z,98851.30
2019-01-08T07:51:09.970Z,98852.20
2019-01-08T07:53:40.083Z,98843.61
2019-01-08T07:56:09.354Z,98850.33
2019-01-08T07:58:38.764Z,98857.67
2019-01-08T08:01:08.017Z,98849.84
2019-01-08T08:03:37.234Z,98846.75
2019-01-08T08:06:07.660Z,98864.13
2019-01-08T08:08:38.743Z,98855.55
2019-01-08T08:11:09.083Z,98850.77
2019-01-08T08:13:39.131Z,98842.66
2019-01-08T08:16:08.389Z,98845.48
2019-01-08T08:18:41.268Z,98841.47
2019-01-08T08:21:11.534Z,98842.20
2019-01-08T08:23:41.277Z,98835.63
2019-01-08T08:26:14.177Z,98836.17
2019-01-08T08:28:43.404Z,98846.09
2019-01-08T08:31:14.764Z,98833.78
2019-01-08T08:33:46.232Z,98846.75
2019-01-08T08:36:17.051Z,98848.98
2019-01-08T08:38:46.585Z,98839.52
2019-01-08T08:41:19.985Z,98834.08
2019-01-08T08:43:53.814Z,98843.66
2019-01-08T08:46:24.387Z,98841.73
2019-01-08T08:48:54.364Z,98854.75
2019-01-08T08:51:24.017Z,98856.76
2019-01-08T08:53:53.622Z,98842.01
2019-01-08T08:56:22.900Z,98848.34
2019-01-08T08:58:52.533Z,98849.06
2019-01-08T09:01:21.788Z,98841.39
2019-01-08T09:03:52.871Z,98843.16
2019-01-08T09:06:22.496Z,98840.19
2019-01-08T09:08:51.753Z,98829.66
2019-01-08T09:11:21.385Z,98831.51
2019-01-08T09:13:50.607Z,98830.80
2019-01-08T09:16:20.741Z,98817.33
2019-01-08T09:18:50.008Z,98809.39
2019-01-08T09:21:19.336Z,98817.75
2019-01-08T09:23:48.853Z,98815.30
2019-01-08T09:26:20.045Z,98809.04
2019-01-08T09:28:50.575Z,98810.58
2019-01-08T09:31:19.900Z,98793.84
2019-01-08T09:33:49.162Z,98788.25
2019-01-08T09:36:18.849Z,98766.85
2019-01-08T09:38:48.675Z,98776.89
2019-01-08T09:41:18.525Z,98776.44
2019-01-08T09:43:48.036Z,98765.32
2019-01-08T09:46:18.077Z,98755.11
2019-01-08T09:48:48.610Z,98744.86
2019-01-08T09:51:18.295Z,98750.79
2019-01-08T09:53:47.527Z,98740.53
2019-01-08T09:56:17.147Z,98747.78
2019-01-08T09:58:46.399Z,98760.20
2019-01-08T10:01:23.556Z,98748.63
2019-01-08T10:03:46.614Z,98747.31
2019-01-08T10:06:15.887Z,98731.25
2019-01-08T10:08:51.749Z,98735.33
2019-01-08T10:11:21.530Z,98738.50
2019-01-08T10:13:51.772Z,98729.98
2019-01-08T10:16:27.083Z,98724.52
2019-01-08T10:19:01.246Z,98732.23
2019-01-08T10:22:02.620Z,98736.09
2019-01-08T10:24:43.874Z,98736.34
2019-01-08T10:27:36.968Z,98726.38
2019-01-08T10:30:33.085Z,98719.48
2019-01-08T10:33:35.218Z,98722.11
2019-01-08T10:36:08.075Z,98732.41
2019-01-08T10:38:41.659Z,98721.97
2019-01-08T10:41:32.594Z,98705.96
2019-01-08T10:44:02.465Z,98712.06
2019-01-08T10:46:37.401Z,98706.67
2019-01-08T10:49:02.920Z,98692.35
2019-01-08T10:51:34.688Z,98702.30
2019-01-08T10:54:05.229Z,98698.63
2019-01-08T10:56:34.587Z,98700.69
2019-01-08T10:59:07.718Z,98684.45
2019-01-08T11:01:40.658Z,98686.23
2019-01-08T11:04:07.402Z,98686.70
2019-01-08T11:06:36.641Z,98681.06
2019-01-08T11:09:08.291Z,98682.84
2019-01-08T11:11:39.062Z,98672.33
2019-01-08T11:14:10.745Z,98678.17
2019-01-08T11:16:46.398Z,98667.16
2019-01-08T11:19:30.424Z,98667.75
2019-01-08T11:22:09.416Z,98672.36
2019-01-08T11:24:48.819Z,98657.03
2019-01-08T11:27:28.825Z,98649.44
2019-01-08T11:30:36.797Z,98648.00
2019-01-08T11:33:09.814Z,98645.67
2019-01-08T11:35:42.794Z,98643.01
2019-01-08T11:38:22.872Z,98645.26
2019-01-08T11:41:11.885Z,98655.13
2019-01-08T11:43:42.935Z,98644.61
2019-01-08T11:46:12.230Z,98648.09
2019-01-08T11:48:48.969Z,98638.42
2019-01-08T11:51:19.977Z,98629.39
2019-01-08T11:54:09.664Z,98632.02
2019-01-08T11:56:41.074Z,98610.80
2019-01-08T11:59:10.631Z,98612.68
2019-01-08T12:01:39.854Z,98611.25
2019-01-08T12:04:09.426Z,98614.09
2019-01-08T12:06:38.905Z,98605.73
2019-01-08T12:09:08.354Z,98601.88
2019-01-08T12:11:37.824Z,98608.36
2019-01-08T12:14:09.977Z,98604.80
2019-01-08T12:16:48.199Z,98593.05
2019-01-08T12:19:21.274Z,98600.94
2019-01-08T12:21:53.672Z,98580.64
2019-01-08T12:24:30.728Z,98578.53
2019-01-08T12:27:00.143Z,98573.75
2019-01-08T12:29:31.126Z,98580.03
2019-01-08T12:32:17.652Z,98570.36
2019-01-08T12:34:49.209Z,98567.64
2019-01-08T12:37:18.757Z,98565.06
2019-01-08T12:39:48.147Z,98568.53
2019-01-08T12:42:17.411Z,98558.30
2019-01-08T12:44:50.130Z,98564.17
2019-01-08T12:47:33.899Z,98563.05
2019-01-08T12:50:13.567Z,98549.43
2019-01-08T12:52:46.446Z,98560.22
2019-01-08T12:55:16.434Z,98550.45
2019-01-08T12:57:59.410Z,98542.61
2019-01-08T13:00:28.652Z,98541.58
2019-01-08T13:02:57.879Z,98550.27
2019-01-08T13:05:27.166Z,98543.41
2019-01-08T13:07:56.480Z,98561.50
2019-01-08T13:10:25.726Z,98557.49
2019-01-08T13:12:54.953Z,98558.87
2019-01-08T13:15:24.232Z,98549.75
2019-01-08T13:17:53.520Z,98556.38
2019-01-08T13:20:22.892Z,98577.83
2019-01-08T13:22:52.489Z,98571.50
2019-01-08T13:25:23.018Z,98578.81
2019-01-08T13:27:52.599Z,98585.72
2019-01-08T13:30:24.127Z,98570.13
2019-01-08T13:32:53.590Z,98562.14
2019-01-08T13:35:23.123Z,98574.69
2019-01-08T13:37:52.374Z,98567.64
2019-01-08T13:40:21.627Z,98574.64
2019-01-08T13:42:50.867Z,98554.88
2019-01-08T13:45:20.104Z,98555.34
2019-01-08T13:47:49.331Z,98544.91
2019-01-08T13:50:18.591Z,98556.33
2019-01-08T13:52:48.986Z,98544.02
2019-01-08T13:55:18.241Z,98537.06
2019-01-08T13:57:47.564Z,98533.69
2019-01-08T14:00:16.996Z,98535.66
2019-01-08T14:02:46.203Z,98536.50
2019-01-08T14:05:15.440Z,98541.45
2019-01-08T14:07:44.660Z,98539.29
2019-01-08T14:10:13.913Z,98545.29
2019-01-08T14:12:43.512Z,98551.40
2019-01-08T14:15:12.763Z,98534.27
2019-01-08T14:17:43.835Z,98554.20
2019-01-08T14:20:13.503Z,98577.70
2019-01-08T14:22:43.278Z,98587.41
2019-01-08T14:25:17.513Z,98592.10
2019-01-08T14:27:47.112Z,98577.97
2019-01-08T14:30:16.369Z,98587.66
2019-01-08T14:32:46.130Z,98595.50
2019-01-08T14:35:15.678Z,98597.13
2019-01-08T14:37:45.153Z,98581.94
2019-01-08T14:40:14.409Z,98599.56
2019-01-08T14:42:43.630Z,98617.01
2019-01-08T14:45:14.182Z,98632.22
2019-01-08T14:47:43.435Z,98626.88
2019-01-08T14:50:12.668Z,98618.96
2019-01-08T14:52:41.921Z,98624.27
2019-01-08T14:55:12.772Z,98615.80
2019-01-08T14:57:50.657Z,98619.65
2019-01-08T15:00:23.568Z,98612.95
2019-01-08T15:02:53.229Z,98619.95
2019-01-08T15:05:25.591Z,98619.73
2019-01-08T15:08:01.804Z,98615.24
2019-01-08T15:10:34.619Z,98615.49
2019-01-08T15:13:13.560Z,98608.97
2019-01-08T15:15:45.387Z,98609.98
2019-01-08T15:18:23.698Z,98608.36
2019-01-08T15:21:00.354Z,98618.98
2019-01-08T15:23:32.643Z,98592.50
2019-01-08T15:26:05.069Z,98601.05
2019-01-08T15:28:34.288Z,98603.97
2019-01-08T15:31:04.640Z,98609.69
2019-01-08T15:33:38.102Z,98595.31
2019-01-08T15:36:09.531Z,98596.91
2019-01-08T15:38:41.160Z,98601.88
2019-01-08T15:41:10.911Z,98611.66
2019-01-08T15:43:42.797Z,98609.50
2019-01-08T15:46:20.093Z,98615.22
2019-01-08T15:48:51.089Z,98605.92
2019-01-08T15:51:20.420Z,98594.41
2019-01-08T15:53:49.700Z,98607.56
2019-01-08T15:56:19.680Z,98611.88
2019-01-08T15:58:48.905Z,98625.05
2019-01-08T16:01:18.155Z,98610.84
2019-01-08T16:03:47.410Z,98609.44
2019-01-08T16:06:16.989Z,98611.59
2019-01-08T16:08:46.629Z,98614.47
2019-01-08T16:11:15.877Z,98613.28
2019-01-08T16:13:45.948Z,98611.59
2019-01-08T16:16:15.288Z,98611.84
2019-01-08T16:18:51.589Z,98614.48
2019-01-08T16:21:35.484Z,98620.41
2019-01-08T16:24:23.287Z,98627.22
2019-01-08T16:26:55.316Z,98636.41
2019-01-08T16:29:29.028Z,98658.16
2019-01-08T16:32:07.490Z,98654.05
2019-01-08T16:34:36.724Z,98657.58
2019-01-08T16:37:07.872Z,98665.97
2019-01-08T16:39:38.743Z,98654.37
2019-01-08T16:42:08.050Z,98656.45
2019-01-08T16:44:47.418Z,98658.20
2019-01-08T16:47:22.465Z,98648.68
2019-01-08T16:50:07.732Z,98652.21
2019-01-08T16:52:36.999Z,98638.33
2019-01-08T16:55:11.539Z,98633.55
2019-01-08T16:57:40.935Z,98619.95
2019-01-08T17:00:16.629Z,98629.92
2019-01-08T17:02:59.835Z,98625.78
2019-01-08T17:05:34.366Z,98617.38
2019-01-08T17:08:03.692Z,98611.59
2019-01-08T17:10:34.744Z,98601.66
2019-01-08T17:13:04.629Z,98602.41
2019-01-08T17:15:35.337Z,98601.95
2019-01-08T17:18:05.176Z,98589.09
2019-01-08T17:20:34.719Z,98590.63
2019-01-08T17:23:04.234Z,98608.53
2019-01-08T17:25:37.201Z,98593.64
2019-01-08T17:28:07.886Z,98578.74
2019-01-08T17:30:38.142Z,98576.84
2019-01-08T17:33:08.676Z,98571.34
2019-01-08T17:35:41.864Z,98570.41
2019-01-08T17:38:11.402Z,98567.24
2019-01-08T17:40:44.283Z,98561.86
2019-01-08T17:43:15.071Z,98564.31
2019-01-08T17:45:50.694Z,98564.06
2019-01-08T17:48:21.890Z,98548.84
2019-01-08T17:50:51.834Z,98564.98
2019-01-08T17:53:21.225Z,98557.96
2019-01-08T17:56:02.815Z,98561.59
2019-01-08T17:58:36.824Z,98551.70
2019-01-08T18:01:11.023Z,98573.16
2019-01-08T18:03:43.213Z,98574.64
2019-01-08T18:06:18.183Z,98581.13
2019-01-08T18:08:49.433Z,98597.13
2019-01-08T18:11:22.593Z,98593.65
2019-01-08T18:13:56.125Z,98597.72
2019-01-08T18:16:52.317Z,98597.89
2019-01-08T18:19:22.517Z,98607.15
2019-01-08T18:21:53.912Z,98611.38
2019-01-08T18:24:25.500Z,98598.20
2019-01-08T18:26:55.268Z,98608.29
2019-01-08T18:29:25.028Z,98615.83
2019-01-08T18:31:56.459Z,98607.16
2019-01-08T18:34:25.843Z,98595.05
2019-01-08T18:36:57.966Z,98612.88
2019-01-08T18:39:27.323Z,98610.98
2019-01-08T18:41:57.190Z,98602.87
2019-01-08T18:44:29.118Z,98596.16
2019-01-08T18:47:07.812Z,98595.09
2019-01-08T18:49:38.912Z,98604.27
2019-01-08T18:52:11.442Z,98603.19
2019-01-08T18:54:40.672Z,98596.48
2019-01-08T18:57:10.959Z,98602.72
2019-01-08T18:59:45.348Z,98623.24
2019-01-08T19:02:16.078Z,98636.78
2019-01-08T19:04:45.314Z,98652.54
2019-01-08T19:07:15.212Z,98655.76
2019-01-08T19:09:48.678Z,98641.35
2019-01-08T19:12:23.623Z,98662.47
2019-01-08T19:14:54.074Z,98665.31
2019-01-08T19:17:28.107Z,98670.56
2019-01-08T19:20:25.616Z,98666.84
2019-01-08T19:23:05.454Z,98673.20
2019-01-08T19:25:40.203Z,98671.58
2019-01-08T19:28:34.875Z,98658.33
2019-01-08T19:31:10.045Z,98667.65
2019-01-08T19:33:48.344Z,98658.75
2019-01-08T19:36:23.395Z,98659.60
2019-01-08T19:39:10.443Z,98657.61
2019-01-08T19:41:42.605Z,98656.84
2019-01-08T19:44:30.959Z,98660.16
2019-01-08T19:47:02.713Z,98658.34
2019-01-08T19:49:37.943Z,98646.17
2019-01-08T19:52:43.171Z,98648.56
2019-01-08T19:55:14.052Z,98665.91
2019-01-08T19:57:44.931Z,98652.22
2019-01-08T20:00:20.165Z,98646.02
2019-01-08T20:03:00.647Z,98638.73
2019-01-08T20:05:37.265Z,98646.25
2019-01-08T20:08:07.075Z,98645.13
2019-01-08T20:10:40.621Z,98644.59
2019-01-08T20:13:19.256Z,98639.08
2019-01-08T20:15:57.890Z,98632.23
2019-01-08T20:18:35.510Z,98637.66
2019-01-08T20:21:07.794Z,98628.48
2019-01-08T20:23:41.336Z,98621.20
2019-01-08T20:26:12.520Z,98636.16
2019-01-08T20:28:45.026Z,98628.68
2019-01-08T20:31:19.968Z,98628.17
2019-01-08T20:36:39.245Z,98627.30
2019-01-08T20:39:13.940Z,98631.53
2019-01-08T20:41:45.643Z,98617.27
2019-01-08T20:44:18.736Z,98613.65
2019-01-08T20:46:49.861Z,98608.02
2019-01-08T20:49:21.832Z,98617.85
2019-01-08T20:51:56.611Z,98605.29
2019-01-08T20:54:25.996Z,98604.25
2019-01-08T20:56:56.317Z,98620.66
2019-01-08T20:59:26.567Z,98612.91
2019-01-08T21:01:55.915Z,98617.34
2019-01-08T21:04:35.865Z,98612.80
2019-01-08T21:10:41.696Z,98611.88
2019-01-08T21:13:30.719Z,98613.87
2019-01-08T21:16:00.911Z,98615.16
2019-01-08T21:18:32.050Z,98615.88
2019-01-08T21:21:06.944Z,98613.61
2019-01-08T21:23:36.796Z,98616.63
2019-01-08T21:26:06.316Z,98620.47
2019-01-08T21:28:40.045Z,98623.20
2019-01-08T21:31:28.193Z,98622.82
2019-01-08T21:34:13.360Z,98633.06
2019-01-08T21:37:09.546Z,98630.08
2019-01-08T21:39:49.317Z,98642.66
2019-01-08T21:42:48.187Z,98637.79
2019-01-08T21:45:31.235Z,98638.19
2019-01-08T21:48:09.980Z,98643.68
2019-01-08T21:50:41.569Z,98635.38
2019-01-08T21:53:16.143Z,98653.48
2019-01-08T21:55:46.766Z,98643.94
2019-01-08T21:58:24.396Z,98645.91
2019-01-08T22:00:54.621Z,98647.08
2019-01-08T22:03:24.236Z,98662.39
2019-01-08T22:05:54.928Z,98658.33
2019-01-08T22:08:26.243Z,98648.46
2019-01-08T22:10:57.671Z,98650.23
2019-01-08T22:13:29.682Z,98648.60
2019-01-08T22:16:03.419Z,98646.16
2019-01-08T22:18:36.314Z,98635.59
2019-01-08T22:21:07.687Z,98641.00
2019-01-08T22:23:39.163Z,98648.60
2019-01-08T22:26:16.522Z,98649.10
2019-01-08T22:28:48.554Z,98652.45
2019-01-08T22:31:20.544Z,98639.63
2019-01-08T22:33:53.645Z,98644.53
2019-01-08T22:36:26.117Z,98644.75
2019-01-08T22:39:00.145Z,98636.83
2019-01-08T22:41:31.435Z,98626.43
2019-01-08T22:44:04.731Z,98633.75
2019-01-08T22:46:34.999Z,98632.97
2019-01-08T22:49:08.491Z,98626.02
2019-01-08T22:51:48.721Z,98612.40
2019-01-08T22:54:19.812Z,98613.16
2019-01-08T22:56:57.490Z,98613.98
2019-01-08T22:59:27.317Z,98607.28
2019-01-08T23:02:20.995Z,98587.30
2019-01-08T23:04:59.549Z,98587.84
2019-01-08T23:07:40.084Z,98592.84
2019-01-08T23:10:44.828Z,98591.64
2019-01-08T23:13:27.223Z,98616.21
2019-01-08T23:16:04.503Z,98626.91
2019-01-08T23:18:37.781Z,98622.85
2019-01-08T23:21:15.110Z,98627.05
2019-01-08T23:23:44.456Z,98633.34
2019-01-08T23:26:16.453Z,98640.07
2019-01-08T23:28:50.508Z,98644.53
2019-01-08T23:31:29.936Z,98650.44
2019-01-08T23:34:40.161Z,98645.63
2019-01-08T23:37:16.022Z,98641.98
2019-01-08T23:39:51.121Z,98641.92
2019-01-08T23:42:22.573Z,98636.37
2019-01-08T23:44:55.800Z,98628.70
2019-01-08T23:47:30.564Z,98628.77
2019-01-08T23:50:02.525Z,98642.77
2019-01-08T23:52:49.098Z,98653.84
2019-01-08T23:55:24.332Z,98662.78
2019-01-08T23:57:58.373Z,98655.92
